Time;durP1;ratioP1;P1;durP2;ratioP2;P2;SDS_P1;SDS_P2;PMS_P1;PMS_P2;Temp;Humidity;BMP_temperature;BMP_pressure;BME280_temperature;BME280_humidity;BME280_pressure;Samples;Min_cycle;Max_cycle;Signal;HPM_P1;HPM_P2
2021/09/04 00:00:35;;;;;;;25.52;14.93;;;15.20;99.90;;;;;;5112306;28;20550;-34
2021/09/04 00:03:01;;;;;;;23.50;14.75;;;15.20;99.90;;;;;;5111788;28;20538;-40
2021/09/04 00:05:28;;;;;;;26.92;15.00;;;15.20;99.90;;;;;;5113219;28;20020;-40
2021/09/04 00:07:57;;;;;;;20.85;13.73;;;15.20;99.90;;;;;;5111090;28;20079;-40
2021/09/04 00:10:22;;;;;;;22.10;13.95;;;15.20;99.90;;;;;;5112189;28;20046;-35
2021/09/04 00:12:48;;;;;;;24.17;15.43;;;15.10;99.90;;;;;;5111365;28;20450;-39
2021/09/04 00:15:14;;;;;;;22.95;14.13;;;15.10;99.90;;;;;;5105609;28;20028;-40
2021/09/04 00:17:42;;;;;;;21.92;13.43;;;15.10;99.90;;;;;;5093801;28;20089;-40
2021/09/04 00:20:09;;;;;;;21.85;14.43;;;15.10;99.90;;;;;;5105434;28;20039;-39
2021/09/04 00:22:34;;;;;;;22.63;13.93;;;15.00;99.90;;;;;;5111796;28;20115;-36
2021/09/04 00:25:00;;;;;;;21.52;14.65;;;15.00;99.90;;;;;;5110848;28;20136;-41
2021/09/04 00:27:25;;;;;;;21.58;14.25;;;14.90;99.90;;;;;;5112803;28;20024;-38
2021/09/04 00:29:51;;;;;;;22.92;14.90;;;14.90;99.90;;;;;;5110869;28;20059;-38
2021/09/04 00:32:19;;;;;;;22.92;14.52;;;14.90;99.90;;;;;;5112145;28;20032;-38
2021/09/04 00:34:45;;;;;;;23.50;13.40;;;14.90;99.90;;;;;;5112019;28;20034;-39
2021/09/04 00:37:11;;;;;;;22.10;13.82;;;14.90;99.90;;;;;;5111868;28;20027;-38
2021/09/04 00:39:36;;;;;;;22.98;15.65;;;14.90;99.90;;;;;;5111698;28;20137;-36
2021/09/04 00:42:08;;;;;;;23.90;15.63;;;14.90;99.90;;;;;;5111436;28;20064;-36
2021/09/04 00:44:39;;;;;;;22.23;13.73;;;14.80;99.90;;;;;;5110961;28;20034;-40
2021/09/04 00:47:08;;;;;;;22.98;13.82;;;14.80;99.90;;;;;;5112085;28;20016;-41
2021/09/04 00:49:35;;;;;;;21.80;14.05;;;14.80;99.90;;;;;;5110937;28;20401;-39
2021/09/04 00:52:01;;;;;;;26.02;14.90;;;14.80;99.90;;;;;;5111107;28;20374;-39
2021/09/04 00:54:27;;;;;;;21.77;13.82;;;14.80;99.90;;;;;;5111411;28;20467;-36
2021/09/04 00:56:53;;;;;;;22.42;13.68;;;14.70;99.90;;;;;;5110698;28;20031;-38
2021/09/04 00:59:19;;;;;;;21.17;14.05;;;14.70;99.90;;;;;;5111132;28;20038;-37
2021/09/04 01:01:45;;;;;;;20.40;13.00;;;14.70;99.90;;;;;;5111308;28;20016;-37
2021/09/04 01:04:11;;;;;;;21.73;13.98;;;14.60;99.90;;;;;;5110886;28;20497;-39
2021/09/04 01:06:38;;;;;;;20.27;13.13;;;14.70;99.90;;;;;;5110982;28;20022;-39
2021/09/04 01:09:04;;;;;;;19.42;13.35;;;14.70;99.90;;;;;;5111878;28;20020;-39
2021/09/04 01:11:30;;;;;;;19.00;13.95;;;14.60;99.90;;;;;;5110444;28;20502;-38
2021/09/04 01:13:56;;;;;;;22.83;13.38;;;14.60;99.90;;;;;;5111039;28;20042;-36
2021/09/04 01:16:22;;;;;;;25.55;14.80;;;14.60;99.90;;;;;;5110919;28;20023;-41
2021/09/04 01:18:47;;;;;;;25.90;14.38;;;14.50;99.90;;;;;;5110266;28;20030;-37
2021/09/04 01:21:14;;;;;;;19.55;13.98;;;14.50;99.90;;;;;;5111289;28;20023;-40
2021/09/04 01:23:40;;;;;;;22.85;13.38;;;14.50;99.90;;;;;;5110969;28;20120;-40
2021/09/04 01:26:07;;;;;;;19.90;13.27;;;14.50;99.90;;;;;;5110372;28;20510;-40
2021/09/04 01:28:33;;;;;;;21.88;14.05;;;14.50;99.90;;;;;;5111058;28;20098;-39
2021/09/04 01:30:59;;;;;;;17.88;12.38;;;14.40;99.90;;;;;;5109847;28;20134;-36
2021/09/04 01:33:24;;;;;;;20.02;13.70;;;14.40;99.90;;;;;;5111248;28;20119;-37
2021/09/04 01:35:50;;;;;;;24.27;15.48;;;14.40;99.90;;;;;;5110352;28;20023;-41
2021/09/04 01:38:15;;;;;;;23.48;14.70;;;14.40;99.90;;;;;;5110750;28;20374;-38
2021/09/04 01:40:41;;;;;;;16.27;12.23;;;14.30;99.90;;;;;;5110109;28;20026;-39
2021/09/04 01:43:07;;;;;;;21.45;13.20;;;14.30;99.90;;;;;;5110293;28;20040;-38
2021/09/04 01:45:33;;;;;;;20.30;13.25;;;14.30;99.90;;;;;;5110510;28;20019;-39
2021/09/04 01:47:58;;;;;;;23.52;13.43;;;14.20;99.90;;;;;;5110233;28;20128;-38
2021/09/04 01:50:24;;;;;;;23.75;14.40;;;14.20;99.90;;;;;;5111002;28;20094;-38
2021/09/04 01:52:50;;;;;;;23.23;14.60;;;14.30;99.90;;;;;;5100319;28;20036;-41
2021/09/04 01:55:18;;;;;;;18.40;12.52;;;14.20;99.90;;;;;;5110390;28;20085;-40
2021/09/04 01:57:49;;;;;;;19.92;12.68;;;14.20;99.90;;;;;;5110336;28;20106;-39
2021/09/04 02:00:16;;;;;;;21.83;13.13;;;14.20;99.90;;;;;;5070112;28;20025;-38
2021/09/04 02:02:42;;;;;;;22.15;14.23;;;14.10;99.90;;;;;;5099137;28;20026;-41
2021/09/04 02:05:11;;;;;;;18.50;12.93;;;14.10;99.90;;;;;;5110530;28;20059;-40
2021/09/04 02:07:37;;;;;;;19.40;13.07;;;14.10;99.90;;;;;;5109436;28;20024;-38
2021/09/04 02:10:05;;;;;;;22.60;15.07;;;14.10;99.90;;;;;;5110286;28;20378;-36
2021/09/04 02:12:31;;;;;;;23.83;13.95;;;14.10;99.90;;;;;;5110168;28;20503;-38
2021/09/04 02:14:56;;;;;;;19.80;14.20;;;14.00;99.90;;;;;;5109099;28;20065;-39
2021/09/04 02:17:28;;;;;;;23.52;14.30;;;14.00;99.90;;;;;;5110006;28;20034;-40
2021/09/04 02:19:53;;;;;;;26.03;15.13;;;14.00;99.90;;;;;;5110034;28;20470;-38
2021/09/04 02:22:25;;;;;;;23.85;16.00;;;14.00;99.90;;;;;;5109993;28;20035;-39
2021/09/04 02:24:51;;;;;;;25.37;16.03;;;14.00;99.90;;;;;;5109458;28;20157;-37
2021/09/04 02:27:16;;;;;;;23.90;15.60;;;13.90;99.90;;;;;;5109770;28;20344;-37
2021/09/04 02:29:42;;;;;;;25.88;16.60;;;13.90;99.90;;;;;;5109561;28;20375;-38
2021/09/04 02:32:08;;;;;;;24.05;14.77;;;13.90;99.90;;;;;;5109846;28;20016;-38
2021/09/04 02:34:33;;;;;;;22.90;14.95;;;13.90;99.90;;;;;;5109464;28;20031;-38
2021/09/04 02:36:59;;;;;;;27.17;16.95;;;14.00;99.90;;;;;;5108500;28;20028;-40
2021/09/04 02:39:24;;;;;;;31.23;17.65;;;14.00;99.90;;;;;;5110329;28;20058;-37
2021/09/04 02:41:50;;;;;;;28.90;17.25;;;14.00;99.90;;;;;;5108178;28;20073;-38
2021/09/04 02:44:15;;;;;;;24.70;15.80;;;14.00;99.90;;;;;;5109767;28;20039;-38
2021/09/04 02:46:41;;;;;;;30.08;17.70;;;14.10;99.90;;;;;;5109918;28;20022;-38
2021/09/04 02:49:07;;;;;;;21.88;14.98;;;14.10;99.90;;;;;;5109121;28;20055;-41
2021/09/04 02:51:32;;;;;;;38.08;19.75;;;14.10;99.90;;;;;;5109123;28;20028;-37
2021/09/04 02:53:57;;;;;;;27.48;18.08;;;14.20;99.90;;;;;;5109045;28;20453;-35
2021/09/04 02:56:23;;;;;;;27.60;18.20;;;14.20;99.90;;;;;;5109684;28;20038;-39
2021/09/04 02:58:48;;;;;;;30.08;18.15;;;14.10;99.90;;;;;;5109359;28;20027;-38
2021/09/04 03:01:14;;;;;;;30.50;17.92;;;14.20;99.90;;;;;;5110270;28;20023;-39
2021/09/04 03:03:40;;;;;;;25.27;17.27;;;14.10;99.90;;;;;;5108626;28;20031;-35
2021/09/04 03:06:05;;;;;;;26.85;18.40;;;14.10;99.90;;;;;;5109389;28;20479;-39
2021/09/04 03:08:33;;;;;;;31.35;19.13;;;14.10;99.90;;;;;;5109102;28;20028;-37
2021/09/04 03:10:58;;;;;;;29.15;19.30;;;14.10;99.90;;;;;;5108750;28;20080;-41
2021/09/04 03:13:24;;;;;;;24.08;16.90;;;14.10;99.90;;;;;;5109509;28;20032;-40
2021/09/04 03:15:49;;;;;;;25.13;17.17;;;14.10;99.90;;;;;;5109385;28;20060;-40
2021/09/04 03:18:24;;;;;;;30.08;19.38;;;14.10;99.90;;;;;;5108969;28;20024;-40
2021/09/04 03:20:50;;;;;;;28.77;19.17;;;14.10;99.90;;;;;;5109414;28;20109;-39
2021/09/04 03:23:24;;;;;;;28.35;19.58;;;14.10;99.90;;;;;;5109810;28;20057;-35
2021/09/04 03:25:53;;;;;;;27.02;18.17;;;14.10;99.90;;;;;;5108858;28;20050;-37
2021/09/04 03:28:18;;;;;;;31.92;19.17;;;14.10;99.90;;;;;;5108741;28;20063;-37
2021/09/04 03:30:44;;;;;;;26.00;17.20;;;14.10;99.90;;;;;;5108660;28;20424;-39
2021/09/04 03:33:09;;;;;;;29.08;18.48;;;14.10;99.90;;;;;;5109047;28;20073;-39
2021/09/04 03:35:35;;;;;;;27.65;19.27;;;14.10;99.90;;;;;;5109266;28;20436;-36
2021/09/04 03:38:00;;;;;;;29.83;19.33;;;14.10;99.90;;;;;;5108755;28;20019;-39
2021/09/04 03:40:26;;;;;;;24.88;17.88;;;14.10;99.90;;;;;;5109597;28;20050;-41
2021/09/04 03:42:51;;;;;;;26.25;17.50;;;14.10;99.90;;;;;;5108484;28;20054;-40
2021/09/04 03:45:17;;;;;;;28.10;17.58;;;14.10;99.90;;;;;;5109429;28;20020;-38
2021/09/04 03:47:42;;;;;;;33.00;19.00;;;14.10;99.90;;;;;;5109913;28;20019;-39
2021/09/04 03:50:11;;;;;;;30.63;18.05;;;14.10;99.90;;;;;;5112141;28;20031;-35
2021/09/04 03:52:37;;;;;;;25.25;18.00;;;14.10;99.90;;;;;;5112281;28;20035;-41
2021/09/04 03:55:03;;;;;;;29.67;18.60;;;14.20;99.90;;;;;;5112387;28;20079;-40
2021/09/04 03:57:30;;;;;;;24.08;17.17;;;14.10;99.90;;;;;;5112384;28;20157;-40
2021/09/04 03:59:55;;;;;;;22.85;15.80;;;14.10;99.90;;;;;;5111913;28;20016;-40
2021/09/04 04:02:21;;;;;;;26.40;16.85;;;14.20;99.90;;;;;;5113003;28;20020;-38
2021/09/04 04:04:46;;;;;;;27.40;17.55;;;14.20;99.90;;;;;;5112301;28;20034;-41
2021/09/04 04:07:15;;;;;;;23.92;15.95;;;14.20;99.90;;;;;;5112236;28;20039;-40
2021/09/04 04:09:44;;;;;;;24.80;17.52;;;14.20;99.90;;;;;;5112580;28;20020;-39
2021/09/04 04:12:10;;;;;;;18.58;14.07;;;14.20;99.90;;;;;;5111910;28;20054;-39
2021/09/04 04:14:35;;;;;;;25.15;17.60;;;14.20;99.90;;;;;;5111386;28;20027;-38
2021/09/04 04:17:01;;;;;;;22.35;15.90;;;14.30;99.90;;;;;;5104223;28;20023;-37
2021/09/04 04:19:27;;;;;;;22.70;15.68;;;14.30;99.90;;;;;;5111576;28;20470;-37
2021/09/04 04:21:53;;;;;;;23.88;16.83;;;14.30;99.90;;;;;;5110804;28;20053;-39
2021/09/04 04:24:18;;;;;;;26.10;17.33;;;14.30;99.90;;;;;;5112036;28;20135;-36
2021/09/04 04:26:44;;;;;;;24.45;15.88;;;14.40;99.90;;;;;;5111760;28;20076;-32
2021/09/04 04:29:09;;;;;;;25.65;17.00;;;14.40;99.90;;;;;;5112626;28;20498;-37
2021/09/04 04:31:39;;;;;;;24.20;16.95;;;14.40;99.90;;;;;;5111982;28;20106;-31
2021/09/04 04:34:05;;;;;;;20.85;15.48;;;14.40;99.90;;;;;;5089658;28;20105;-41
2021/09/04 04:36:31;;;;;;;23.90;16.15;;;14.40;99.90;;;;;;5112608;28;20023;-40
2021/09/04 04:38:57;;;;;;;28.90;17.58;;;14.30;99.90;;;;;;5111809;28;20028;-42
2021/09/04 04:41:22;;;;;;;25.00;15.82;;;14.30;99.90;;;;;;5112024;28;20387;-41
2021/09/04 04:43:48;;;;;;;23.67;16.92;;;14.40;99.90;;;;;;5111779;28;20112;-43
2021/09/04 04:46:13;;;;;;;27.67;17.70;;;14.40;99.90;;;;;;5112248;28;20115;-40
2021/09/04 04:48:39;;;;;;;24.58;17.70;;;14.40;99.90;;;;;;5111463;28;20165;-37
2021/09/04 04:51:05;;;;;;;27.02;18.23;;;14.40;99.90;;;;;;5111829;28;20473;-33
2021/09/04 04:53:30;;;;;;;30.48;17.50;;;14.40;99.90;;;;;;5111403;28;20475;-36
2021/09/04 04:55:56;;;;;;;29.17;17.65;;;14.30;99.90;;;;;;5111271;28;20507;-36
2021/09/04 04:58:22;;;;;;;27.60;18.70;;;14.40;99.90;;;;;;5111186;28;20038;-35
2021/09/04 05:00:48;;;;;;;29.50;19.38;;;14.40;99.90;;;;;;5111215;28;20046;-39
2021/09/04 05:03:14;;;;;;;29.80;18.23;;;14.30;99.90;;;;;;5110930;28;20157;-37
2021/09/04 05:05:42;;;;;;;26.65;18.38;;;14.30;99.90;;;;;;5111410;28;20467;-38
2021/09/04 05:08:10;;;;;;;29.23;18.40;;;14.30;99.90;;;;;;5110458;28;20031;-38
2021/09/04 05:10:39;;;;;;;27.67;18.50;;;14.30;99.90;;;;;;5110823;28;20038;-36
2021/09/04 05:13:04;;;;;;;30.33;18.45;;;14.30;99.90;;;;;;5111220;28;20604;-39
2021/09/04 05:15:30;;;;;;;28.55;18.70;;;14.30;99.90;;;;;;5111313;28;20102;-39
2021/09/04 05:17:55;;;;;;;28.83;18.27;;;14.40;99.90;;;;;;5109735;28;20355;-38
2021/09/04 05:20:21;;;;;;;31.05;19.08;;;14.40;99.90;;;;;;5111221;28;20016;-38
2021/09/04 05:22:47;;;;;;;32.10;20.58;;;14.40;99.90;;;;;;5110269;28;20019;-39
2021/09/04 05:25:14;;;;;;;26.33;18.30;;;14.40;99.90;;;;;;5110474;28;20489;-39
2021/09/04 05:27:39;;;;;;;29.35;18.15;;;14.40;99.90;;;;;;5110931;28;20024;-35
2021/09/04 05:30:10;;;;;;;28.08;17.67;;;14.40;99.90;;;;;;5110014;28;20058;-38
2021/09/04 05:32:39;;;;;;;25.77;18.60;;;14.50;99.90;;;;;;5110684;28;20096;-36
2021/09/04 05:35:11;;;;;;;26.05;17.95;;;14.50;99.90;;;;;;5110210;28;20046;-38
2021/09/04 05:37:37;;;;;;;26.88;18.60;;;14.50;99.90;;;;;;5110382;28;20032;-38
2021/09/04 05:40:06;;;;;;;24.80;17.85;;;14.50;99.90;;;;;;5111235;28;20027;-38
2021/09/04 05:42:32;;;;;;;25.50;18.30;;;14.50;99.90;;;;;;5110699;28;20432;-38
2021/09/04 05:44:59;;;;;;;32.17;19.45;;;14.50;99.90;;;;;;5109111;28;20483;-37
2021/09/04 05:47:25;;;;;;;31.23;20.13;;;14.50;99.90;;;;;;5111055;28;20020;-36
2021/09/04 05:49:51;;;;;;;27.33;19.05;;;14.40;99.90;;;;;;5110017;28;20472;-36
2021/09/04 05:52:16;;;;;;;27.30;18.05;;;14.40;99.90;;;;;;5103633;28;20036;-39
2021/09/04 05:54:42;;;;;;;25.52;17.23;;;14.40;99.90;;;;;;5098762;28;20023;-38
2021/09/04 05:57:13;;;;;;;30.90;19.40;;;14.40;99.90;;;;;;5110305;28;20470;-34
2021/09/04 05:59:45;;;;;;;29.60;19.33;;;14.40;99.90;;;;;;5109726;28;20033;-33
2021/09/04 06:02:10;;;;;;;32.05;20.40;;;14.40;99.90;;;;;;5110990;28;20027;-39
2021/09/04 06:04:36;;;;;;;32.00;20.98;;;14.40;99.90;;;;;;5110494;28;20023;-37
2021/09/04 06:07:07;;;;;;;28.13;19.30;;;14.40;99.90;;;;;;5109644;28;20012;-37
2021/09/04 06:09:33;;;;;;;30.58;18.83;;;14.40;99.90;;;;;;5110328;28;20027;-36
2021/09/04 06:11:58;;;;;;;28.92;19.77;;;14.40;99.90;;;;;;5108765;28;20039;-36
2021/09/04 06:14:24;;;;;;;27.25;16.98;;;14.40;99.90;;;;;;5109598;28;20118;-36
2021/09/04 06:16:49;;;;;;;30.45;18.73;;;14.50;99.90;;;;;;5109507;28;20016;-35
2021/09/04 06:19:15;;;;;;;29.42;19.40;;;14.50;99.90;;;;;;5109445;28;20027;-40
2021/09/04 06:21:40;;;;;;;24.60;16.27;;;14.50;99.90;;;;;;5109274;28;20016;-38
2021/09/04 06:24:06;;;;;;;24.58;17.90;;;14.50;99.90;;;;;;5110518;28;20020;-37
2021/09/04 06:26:35;;;;;;;25.65;17.63;;;14.50;99.90;;;;;;5109274;28;20146;-38
2021/09/04 06:29:05;;;;;;;29.25;18.23;;;14.50;99.90;;;;;;5109214;28;20019;-36
2021/09/04 06:31:30;;;;;;;30.02;19.10;;;14.50;99.90;;;;;;5110071;28;20394;-42
2021/09/04 06:33:56;;;;;;;29.02;19.08;;;14.60;99.90;;;;;;5108543;28;20329;-36
2021/09/04 06:36:21;;;;;;;26.73;17.85;;;14.60;99.90;;;;;;5109822;28;20042;-37
2021/09/04 06:38:47;;;;;;;28.08;18.77;;;14.60;99.90;;;;;;5109900;28;20374;-36
2021/09/04 06:41:12;;;;;;;26.58;16.77;;;14.60;99.90;;;;;;5108874;28;20015;-37
2021/09/04 06:43:38;;;;;;;26.58;18.23;;;14.70;99.90;;;;;;5109532;28;20019;-35
2021/09/04 06:46:03;;;;;;;25.08;17.42;;;14.70;99.90;;;;;;5109049;28;20019;-36
2021/09/04 06:48:29;;;;;;;27.05;18.35;;;14.70;99.90;;;;;;5086654;28;20122;-38
2021/09/04 06:50:55;;;;;;;25.73;18.13;;;14.80;99.90;;;;;;5109272;28;20108;-39
2021/09/04 06:53:20;;;;;;;27.20;18.15;;;14.80;99.90;;;;;;5110001;28;20035;-40
2021/09/04 06:55:46;;;;;;;26.05;18.20;;;14.80;99.90;;;;;;5108606;28;20363;-36
2021/09/04 06:58:11;;;;;;;29.85;20.38;;;14.90;99.90;;;;;;5109687;28;20097;-39
2021/09/04 07:00:37;;;;;;;28.20;19.17;;;14.90;99.90;;;;;;5109372;28;20564;-37
2021/09/04 07:03:02;;;;;;;24.50;18.63;;;14.90;99.90;;;;;;5108662;28;20027;-37
2021/09/04 07:05:31;;;;;;;29.25;18.85;;;14.80;99.90;;;;;;5072032;28;20027;-39
2021/09/04 07:07:59;;;;;;;26.13;18.38;;;14.90;99.90;;;;;;5099176;28;20815;-37
2021/09/04 07:10:24;;;;;;;24.48;18.02;;;14.90;99.90;;;;;;5108740;28;20382;-38
2021/09/04 07:12:50;;;;;;;25.83;18.13;;;14.90;99.90;;;;;;5105325;28;20047;-39
2021/09/04 07:15:18;;;;;;;25.77;16.77;;;14.90;99.90;;;;;;5107943;28;20220;-36
2021/09/04 07:17:44;;;;;;;29.38;18.27;;;15.00;99.90;;;;;;5107270;28;20536;-35
2021/09/04 07:20:10;;;;;;;26.05;17.95;;;15.00;99.90;;;;;;5108558;28;20016;-39
2021/09/04 07:22:35;;;;;;;24.73;18.20;;;15.10;99.90;;;;;;5109257;28;20102;-40
2021/09/04 07:25:01;;;;;;;23.05;17.48;;;15.10;99.90;;;;;;5112462;28;20114;-35
2021/09/04 07:27:26;;;;;;;21.30;16.63;;;15.20;99.90;;;;;;5111671;28;20496;-39
2021/09/04 07:29:52;;;;;;;21.83;16.08;;;15.30;99.90;;;;;;5111179;28;20034;-38
2021/09/04 07:32:17;;;;;;;23.67;17.88;;;15.30;99.90;;;;;;5112135;28;20036;-35
2021/09/04 07:34:43;;;;;;;22.95;16.00;;;15.40;99.90;;;;;;5111955;28;20104;-39
2021/09/04 07:37:08;;;;;;;21.55;15.98;;;15.50;99.90;;;;;;5111195;28;20020;-35
2021/09/04 07:39:36;;;;;;;23.77;16.70;;;15.50;99.90;;;;;;5111936;28;20027;-42
2021/09/04 07:42:02;;;;;;;21.88;16.35;;;15.60;99.90;;;;;;5112258;28;20016;-37
2021/09/04 07:44:28;;;;;;;20.05;14.85;;;15.60;99.90;;;;;;5111182;28;20035;-37
2021/09/04 07:46:53;;;;;;;23.75;16.52;;;15.70;99.90;;;;;;5102004;28;20023;-40
2021/09/04 07:49:19;;;;;;;18.70;14.63;;;15.70;99.90;;;;;;5107188;28;20052;-37
2021/09/04 07:51:50;;;;;;;20.90;15.70;;;15.80;99.90;;;;;;5111263;28;20493;-37
2021/09/04 07:54:16;;;;;;;22.83;15.27;;;15.80;99.90;;;;;;5098613;28;20032;-37
2021/09/04 07:56:41;;;;;;;19.50;14.38;;;15.90;99.90;;;;;;5099614;28;20073;-39
2021/09/04 07:59:07;;;;;;;17.75;13.98;;;16.00;99.90;;;;;;5101169;28;20062;-33
2021/09/04 08:01:35;;;;;;;18.25;14.10;;;16.00;99.90;;;;;;5111968;28;20019;-38
2021/09/04 08:04:01;;;;;;;18.17;14.15;;;16.10;99.90;;;;;;5110968;28;20614;-40
2021/09/04 08:06:26;;;;;;;17.73;13.35;;;16.20;99.90;;;;;;5111667;28;20487;-37
2021/09/04 08:08:54;;;;;;;21.75;13.23;;;16.30;99.90;;;;;;5092399;28;20170;-38
2021/09/04 08:11:23;;;;;;;18.38;13.02;;;16.30;99.90;;;;;;5111375;28;20066;-34
2021/09/04 08:13:57;;;;;;;19.77;13.98;;;16.40;99.90;;;;;;5110012;28;20487;-38
2021/09/04 08:16:23;;;;;;;17.05;13.68;;;16.50;99.90;;;;;;5104131;28;20016;-38
2021/09/04 08:18:48;;;;;;;16.67;12.02;;;16.50;99.90;;;;;;5111085;28;20328;-38
2021/09/04 08:21:17;;;;;;;18.80;13.18;;;16.50;99.90;;;;;;5112489;28;20050;-36
2021/09/04 08:23:49;;;;;;;17.10;13.02;;;16.60;99.90;;;;;;5098747;28;20490;-37
2021/09/04 08:26:14;;;;;;;17.60;12.53;;;16.60;99.90;;;;;;5090290;28;20028;-34
2021/09/04 08:28:46;;;;;;;19.40;13.60;;;16.60;99.90;;;;;;5080888;28;20027;-37
2021/09/04 08:31:11;;;;;;;17.65;12.25;;;16.70;99.90;;;;;;5093434;28;20066;-38
2021/09/04 08:33:37;;;;;;;15.25;11.60;;;16.80;99.90;;;;;;5080243;28;20111;-36
2021/09/04 08:36:03;;;;;;;17.25;12.63;;;16.90;99.90;;;;;;5087711;28;20093;-38
2021/09/04 08:38:28;;;;;;;18.98;12.93;;;17.00;99.90;;;;;;5081900;28;20024;-40
2021/09/04 08:40:54;;;;;;;17.65;12.73;;;17.10;99.90;;;;;;5098141;28;20020;-42
2021/09/04 08:43:23;;;;;;;17.10;12.40;;;17.20;99.90;;;;;;5112090;28;20020;-41
2021/09/04 08:45:49;;;;;;;16.92;13.13;;;17.30;99.90;;;;;;5111006;28;20486;-43
2021/09/04 08:48:17;;;;;;;16.83;13.70;;;17.30;99.90;;;;;;5110888;28;20114;-41
2021/09/04 08:50:43;;;;;;;17.17;12.60;;;17.30;99.90;;;;;;5102977;28;20016;-38
2021/09/04 08:53:08;;;;;;;15.18;12.27;;;17.20;99.90;;;;;;5081354;28;20047;-41
2021/09/04 08:55:34;;;;;;;17.05;12.77;;;17.10;99.90;;;;;;5091103;28;20016;-41
2021/09/04 08:57:59;;;;;;;16.45;11.88;;;17.00;99.90;;;;;;5102556;28;20024;-44
2021/09/04 09:00:29;;;;;;;16.38;12.07;;;17.00;99.90;;;;;;5086577;28;20338;-42
2021/09/04 09:02:56;;;;;;;14.88;11.23;;;16.90;99.90;;;;;;5110235;28;20036;-39
2021/09/04 09:05:22;;;;;;;18.65;13.27;;;16.80;99.90;;;;;;5111081;28;20095;-37
2021/09/04 09:07:48;;;;;;;13.88;11.38;;;16.70;99.90;;;;;;5110432;28;20746;-42
2021/09/04 09:10:22;;;;;;;15.38;11.65;;;16.70;99.90;;;;;;5091278;28;20020;-39
2021/09/04 09:12:49;;;;;;;15.27;12.02;;;16.60;99.90;;;;;;5101496;28;20082;-41
2021/09/04 09:15:32;;;;;;;14.65;11.55;;;16.50;99.90;;;;;;5111532;28;20035;-41
2021/09/04 09:17:57;;;;;;;14.43;10.63;;;16.50;99.90;;;;;;5109980;28;20055;-42
2021/09/04 09:20:24;;;;;;;16.58;11.43;;;16.50;99.90;;;;;;5088914;28;20055;-43
2021/09/04 09:22:50;;;;;;;16.80;11.20;;;16.40;99.90;;;;;;5107064;28;20406;-40
2021/09/04 09:25:17;;;;;;;14.77;10.85;;;16.40;99.90;;;;;;5112465;28;20023;-40
2021/09/04 09:28:21;;;;;;;14.82;9.93;;;16.40;99.90;;;;;;5111053;28;20470;-43
2021/09/04 09:30:51;;;;;;;14.52;10.70;;;16.50;99.90;;;;;;5069594;28;20099;-43
2021/09/04 09:33:19;;;;;;;12.07;10.00;;;16.50;99.90;;;;;;5110261;28;20063;-38
2021/09/04 09:35:50;;;;;;;16.05;11.05;;;16.60;99.90;;;;;;5111481;28;20019;-44
2021/09/04 09:38:19;;;;;;;14.65;11.23;;;16.60;99.90;;;;;;5110366;28;20678;-40
2021/09/04 09:40:45;;;;;;;15.20;9.95;;;16.80;99.90;;;;;;5095328;28;20402;-40
2021/09/04 09:43:35;;;;;;;13.18;9.73;;;16.80;99.90;;;;;;5101039;28;20152;-43
2021/09/04 09:46:07;;;;;;;11.93;9.00;;;16.90;99.90;;;;;;5111397;28;20031;-41
2021/09/04 09:48:36;;;;;;;13.40;9.68;;;17.00;99.90;;;;;;5109409;28;20500;-41
2021/09/04 09:51:04;;;;;;;11.35;9.27;;;17.10;99.90;;;;;;5090334;28;20495;-43
2021/09/04 09:53:30;;;;;;;13.88;8.93;;;17.10;99.90;;;;;;5101274;28;20039;-40
2021/09/04 09:55:57;;;;;;;10.43;7.85;;;17.20;99.90;;;;;;5110637;28;20370;-40
2021/09/04 09:58:24;;;;;;;10.73;8.70;;;17.30;99.90;;;;;;5110254;28;20020;-41
2021/09/04 10:00:53;;;;;;;10.93;8.57;;;17.30;99.90;;;;;;5109932;28;20030;-43
2021/09/04 10:03:19;;;;;;;11.13;8.98;;;17.40;99.90;;;;;;5110970;28;20567;-41
2021/09/04 10:05:49;;;;;;;11.93;8.85;;;17.40;99.90;;;;;;5110283;28;20071;-42
2021/09/04 10:08:17;;;;;;;13.10;9.57;;;17.40;99.90;;;;;;5110387;28;20402;-42
2021/09/04 10:10:43;;;;;;;12.50;9.55;;;17.50;99.90;;;;;;5110305;28;20061;-40
2021/09/04 10:13:11;;;;;;;13.68;10.10;;;17.50;99.90;;;;;;5107625;28;20057;-39
2021/09/04 10:15:39;;;;;;;12.98;8.77;;;17.60;99.90;;;;;;5082921;28;20408;-39
2021/09/04 10:18:07;;;;;;;11.93;9.75;;;17.60;99.90;;;;;;5094989;28;20072;-41
2021/09/04 10:20:34;;;;;;;13.75;9.82;;;17.70;99.90;;;;;;5109515;28;20439;-42
2021/09/04 10:23:35;;;;;;;13.48;10.20;;;17.70;99.90;;;;;;5109730;28;20031;-43
2021/09/04 10:26:24;;;;;;;11.70;9.35;;;17.70;99.90;;;;;;5087570;28;20390;-39
2021/09/04 10:29:19;;;;;;;13.77;9.75;;;17.80;99.90;;;;;;5109278;28;20030;-39
2021/09/04 10:31:55;;;;;;;17.48;10.98;;;17.80;99.90;;;;;;5110000;28;20055;-39
2021/09/04 10:34:42;;;;;;;15.75;10.70;;;17.90;99.90;;;;;;5101756;28;20028;-43
2021/09/04 10:37:18;;;;;;;13.63;9.93;;;17.90;99.90;;;;;;5109189;28;20023;-39
2021/09/04 10:39:59;;;;;;;13.18;10.27;;;17.90;99.90;;;;;;5108722;28;20611;-35
2021/09/04 10:42:27;;;;;;;13.90;9.50;;;18.00;99.90;;;;;;5109882;28;20405;-37
2021/09/04 10:45:03;;;;;;;12.25;9.73;;;18.00;99.90;;;;;;5108929;28;20493;-36
2021/09/04 10:47:29;;;;;;;12.27;9.65;;;18.00;99.90;;;;;;5109262;28;20016;-38
2021/09/04 10:50:10;;;;;;;11.90;9.57;;;18.10;99.90;;;;;;5108463;28;20559;-36
2021/09/04 10:52:45;;;;;;;11.93;8.57;;;18.10;99.90;;;;;;5109782;28;20146;-36
2021/09/04 10:55:17;;;;;;;12.40;9.13;;;18.20;99.90;;;;;;5109504;28;20028;-36
2021/09/04 10:57:44;;;;;;;;;;;18.20;99.90;;;;;;5112885;28;20034;-39
2021/09/04 11:00:22;;;;;;;13.27;9.25;;;18.20;99.90;;;;;;5113011;28;20425;-38
2021/09/04 11:02:52;;;;;;;12.95;9.27;;;18.30;99.90;;;;;;5113076;28;20024;-37
2021/09/04 11:05:28;;;;;;;11.18;9.30;;;18.30;99.90;;;;;;5113804;28;20008;-36
2021/09/04 11:08:10;;;;;;;13.48;9.35;;;18.30;99.90;;;;;;5112705;28;20407;-35
2021/09/04 11:10:37;;;;;;;;;;;18.40;99.90;;;;;;5113870;28;20494;-35
2021/09/04 11:13:05;;;;;;;12.70;8.43;;;18.40;99.90;;;;;;5113120;28;20289;-39
2021/09/04 11:15:31;;;;;;;10.82;8.02;;;18.40;99.90;;;;;;5112749;28;20463;-38
2021/09/04 11:17:57;;;;;;;11.68;8.60;;;18.50;99.90;;;;;;5112327;28;20063;-37
2021/09/04 11:20:29;;;;;;;9.98;7.40;;;18.50;99.90;;;;;;5100205;28;20024;-36
2021/09/04 11:22:54;;;;;;;8.45;7.18;;;18.60;99.90;;;;;;5112441;28;20019;-39
2021/09/04 11:25:21;;;;;;;8.48;6.97;;;18.70;99.90;;;;;;5112992;28;20459;-37
2021/09/04 11:27:56;;;;;;;8.45;7.22;;;18.80;99.90;;;;;;5113372;28;20055;-39
2021/09/04 11:30:34;;;;;;;9.98;7.32;;;18.80;99.90;;;;;;5112578;28;20098;-42
2021/09/04 11:33:17;;;;;;;11.20;7.80;;;18.90;99.90;;;;;;5090286;28;20063;-41
2021/09/04 11:35:49;;;;;;;13.52;9.43;;;18.90;99.70;;;;;;5111866;28;20668;-41
2021/09/04 11:38:16;;;;;;;11.77;7.68;;;19.00;99.50;;;;;;5092064;28;20485;-42
2021/09/04 11:40:43;;;;;;;11.48;8.10;;;19.00;99.30;;;;;;5113045;28;20012;-42
2021/09/04 11:43:09;;;;;;;11.50;8.27;;;19.00;99.00;;;;;;5112765;28;20038;-41
2021/09/04 11:45:35;;;;;;;12.32;7.68;;;19.10;99.20;;;;;;5113177;28;20020;-41
2021/09/04 11:48:08;;;;;;;10.77;6.82;;;19.10;99.30;;;;;;5112657;28;20023;-39
2021/09/04 11:50:37;;;;;;;7.85;6.45;;;19.10;99.40;;;;;;5112476;28;20031;-41
2021/09/04 11:53:11;;;;;;;11.63;7.60;;;19.20;99.30;;;;;;5096885;28;20062;-41
2021/09/04 11:55:40;;;;;;;10.90;8.13;;;19.20;99.10;;;;;;5087280;28;20028;-43
2021/09/04 11:58:11;;;;;;;9.48;7.45;;;19.30;99.10;;;;;;5088901;28;20383;-40
2021/09/04 12:00:43;;;;;;;10.40;7.50;;;19.30;98.70;;;;;;5074784;28;20021;-40
2021/09/04 12:03:10;;;;;;;10.85;7.40;;;19.30;98.70;;;;;;5106952;28;20482;-40
2021/09/04 12:05:39;;;;;;;14.43;8.20;;;19.40;98.70;;;;;;5095614;28;20024;-38
2021/09/04 12:08:07;;;;;;;12.68;8.23;;;19.40;98.60;;;;;;5087600;28;20024;-37
2021/09/04 12:10:35;;;;;;;9.43;7.28;;;19.40;98.40;;;;;;5083298;28;20073;-39
2021/09/04 12:13:06;;;;;;;11.65;7.53;;;19.40;98.60;;;;;;5103049;28;20044;-42
2021/09/04 12:15:34;;;;;;;8.98;7.00;;;19.40;98.60;;;;;;5102250;28;20020;-39
2021/09/04 12:18:02;;;;;;;13.75;8.45;;;19.50;98.60;;;;;;5103083;28;20110;-41
2021/09/04 12:20:44;;;;;;;11.88;7.95;;;19.50;98.40;;;;;;5111488;28;20537;-41
2021/09/04 12:23:24;;;;;;;11.43;8.18;;;19.60;98.40;;;;;;5111115;28;20018;-41
2021/09/04 12:26:07;;;;;;;14.15;9.10;;;19.60;98.30;;;;;;5110807;28;20084;-36
2021/09/04 12:28:33;;;;;;;11.10;7.55;;;19.70;98.10;;;;;;5112525;28;20366;-39
2021/09/04 12:31:06;;;;;;;9.20;7.20;;;19.70;98.10;;;;;;5112018;28;20102;-39
2021/09/04 12:33:45;;;;;;;12.10;8.15;;;19.70;98.20;;;;;;5111989;28;20112;-40